Aérodrome :
LOGIN :

S'inscrire | Disclaimer

   EN    FR    IT 

 










Légende :    VFR   VFR Marginal   IFR   IFR Intensif   IFR Très Intensif
Visi : 
Plafond : 
>= 8 km
>= 3000ft
5 à 8 km
1000 à 3000 ft
1500m à 5 km
500 à 1000 ft
800 à 1500m
200 à 500 ft
< 800m
< 200 ft
Symboles :   Orages  Brouillard  Fortes neiges  Fortes précipitations  Vent > 20 kt
SIGMETs :   Divers  Orages  Givrage  Turbulence  Onde Orograph.  Cendres Volcan.







- Altitude de l'aérodrome : 348 ft
- Code IATA : STN
- Voir les cartes d'approche


EGSS - London Stansted

DERNIER METAR :
  • 130720Z AUTO 12009KT 9999 NCD 02/M00 Q1017

METARs EXPIRÉS :
  • 130650Z AUTO 12010KT 9999 NCD 02/M00 Q1017
  • 130620Z AUTO 12012KT 9999 NCD 02/M01 Q1017
  • 130550Z AUTO 12013KT 9999 NCD 02/M01 Q1017
  • 130520Z AUTO 12014KT 9999 NCD 03/M01 Q1017
  • 130450Z AUTO 12013KT 9999 NCD 03/M01 Q1017
  • 130420Z AUTO 12011KT 9999 NCD 02/M01 Q1018

TAF TAF EGSS
Valide du 13 à 06h jusqu'au 14 à 12h UTC


130500Z 1306/1412 13014KT 9999 SCT040
TEMPO 1306/1310 8000 BKN010
BECMG 1316/1319 07008KT
PROB30 1402/1410 6000
ATIS : +44 1279 669 325
Pas de NOTAMs connus pour ce terrain.



MET'MAP, la Météo Aéronautique d'un coup d'oeil ! - Copyright ORBIFLY Décembre 2007 - Disclaimer

ORBIFLY MET'MAP TEAM :

Programmation & Développement : Alexandra Zaïnal
Conception & Développement : Baudouin d'Aumeries
Co-Programmation & Développement : Marc-Olivier Méhu
Soutien technique & logistique : Manuel Goepfert

Contact : metmap@orbifly.com




SOURCES & CREDITS :

   NOAA